createdAt,value
2024-02-28T00:01:52.095Z,7.30
2024-02-28T00:04:19.742Z,7.26
2024-02-28T00:06:49.603Z,7.25
2024-02-28T00:09:17.013Z,7.31
2024-02-28T00:11:48.084Z,7.30
2024-02-28T00:14:14.746Z,7.27
2024-02-28T00:16:42.646Z,7.29
2024-02-28T00:19:09.808Z,7.28
2024-02-28T00:21:36.420Z,7.27
2024-02-28T00:24:03.377Z,7.34
2024-02-28T00:26:31.517Z,7.30
2024-02-28T00:28:58.824Z,7.33
2024-02-28T00:31:25.488Z,7.27
2024-02-28T00:33:52.116Z,7.32
2024-02-28T00:36:20.017Z,7.36
2024-02-28T00:38:46.643Z,7.31
2024-02-28T00:41:13.182Z,7.38
2024-02-28T00:43:39.826Z,7.34
2024-02-28T00:46:09.392Z,7.27
2024-02-28T00:48:36.368Z,7.26
2024-02-28T00:51:03.305Z,7.35
2024-02-28T00:53:29.959Z,7.37
2024-02-28T00:55:56.538Z,7.29
2024-02-28T00:58:23.050Z,7.25
2024-02-28T01:00:49.933Z,7.24
2024-02-28T01:03:16.979Z,7.29
2024-02-28T01:05:44.660Z,7.27
2024-02-28T01:08:11.192Z,7.22
2024-02-28T01:10:39.331Z,7.27
2024-02-28T01:13:05.952Z,7.19
2024-02-28T01:15:32.708Z,7.19
2024-02-28T01:17:59.815Z,7.17
2024-02-28T01:20:26.322Z,7.13
2024-02-28T01:22:53.288Z,7.21
2024-02-28T01:25:19.881Z,7.19
2024-02-28T01:27:46.385Z,7.15
2024-02-28T01:30:13.277Z,7.14
2024-02-28T01:32:40.013Z,7.16
2024-02-28T01:35:09.165Z,7.14
2024-02-28T01:37:35.837Z,7.13
2024-02-28T01:40:02.395Z,7.12
2024-02-28T01:42:28.945Z,7.11
2024-02-28T01:44:55.427Z,7.13
2024-02-28T01:47:22.013Z,7.10
2024-02-28T01:49:49.643Z,7.24
2024-02-28T01:52:16.357Z,7.07
2024-02-28T01:54:43.124Z,7.05
2024-02-28T01:57:10.744Z,6.99
2024-02-28T01:59:38.046Z,7.02
2024-02-28T02:02:04.886Z,7.19
2024-02-28T02:04:31.546Z,7.09
2024-02-28T02:06:59.358Z,7.02
2024-02-28T02:09:27.280Z,7.12
2024-02-28T02:11:53.858Z,7.12
2024-02-28T02:14:20.730Z,7.05
2024-02-28T02:16:47.445Z,7.03
2024-02-28T02:19:14.526Z,6.96
2024-02-28T02:21:53.711Z,6.96
2024-02-28T02:24:20.618Z,7.01
2024-02-28T02:26:47.651Z,6.95
2024-02-28T02:29:14.654Z,6.90
2024-02-28T02:31:41.782Z,6.94
2024-02-28T02:34:08.675Z,6.98
2024-02-28T02:36:35.321Z,6.90
2024-02-28T02:39:01.904Z,6.96
2024-02-28T02:41:28.498Z,6.90
2024-02-28T02:43:55.041Z,6.91
2024-02-28T02:46:21.911Z,6.85
2024-02-28T02:48:48.462Z,6.90
2024-02-28T02:51:15.081Z,6.83
2024-02-28T02:53:41.720Z,6.96
2024-02-28T02:56:08.483Z,6.85
2024-02-28T02:58:35.103Z,6.85
2024-02-28T03:01:01.932Z,6.85
2024-02-28T03:03:28.656Z,6.84
2024-02-28T03:05:55.288Z,6.86
2024-02-28T03:08:21.844Z,6.86
2024-02-28T03:10:48.369Z,6.89
2024-02-28T03:13:14.969Z,6.91
2024-02-28T03:15:41.539Z,6.82
2024-02-28T03:18:08.370Z,6.81
2024-02-28T03:20:35.615Z,6.87
2024-02-28T03:23:02.176Z,6.84
2024-02-28T03:25:29.544Z,6.80
2024-02-28T03:27:56.369Z,6.93
2024-02-28T03:30:22.988Z,6.73
2024-02-28T03:32:49.552Z,6.76
2024-02-28T03:35:16.140Z,6.90
2024-02-28T03:37:42.619Z,6.90
2024-02-28T03:40:09.616Z,6.74
2024-02-28T03:42:36.237Z,6.70
2024-02-28T03:45:03.465Z,6.71
2024-02-28T03:47:30.724Z,6.70
2024-02-28T03:49:58.659Z,6.65
2024-02-28T03:52:25.254Z,6.64
2024-02-28T03:54:51.995Z,6.62
2024-02-28T03:57:18.672Z,6.58
2024-02-28T03:59:45.254Z,6.60
2024-02-28T04:02:12.080Z,6.68
2024-02-28T04:04:38.935Z,6.65
2024-02-28T04:07:05.636Z,6.69
2024-02-28T04:09:32.247Z,6.66
2024-02-28T04:11:58.927Z,6.58
2024-02-28T04:14:25.583Z,6.61
2024-02-28T04:16:52.162Z,6.58
2024-02-28T04:19:18.749Z,6.59
2024-02-28T04:21:45.393Z,6.67
2024-02-28T04:24:13.918Z,6.60
2024-02-28T04:26:41.523Z,6.59
2024-02-28T04:29:13.936Z,6.56
2024-02-28T04:31:40.677Z,6.56
2024-02-28T04:34:07.386Z,6.63
2024-02-28T04:36:34.320Z,6.59
2024-02-28T04:39:02.123Z,6.59
2024-02-28T04:41:29.556Z,6.50
2024-02-28T04:43:56.152Z,6.62
2024-02-28T04:46:22.865Z,6.57
2024-02-28T04:48:49.572Z,6.56
2024-02-28T04:51:18.450Z,6.62
2024-02-28T04:53:45.137Z,6.57
2024-02-28T04:56:11.731Z,6.48
2024-02-28T04:58:38.646Z,6.43
2024-02-28T05:01:05.491Z,6.48
2024-02-28T05:03:32.231Z,6.52
2024-02-28T05:05:58.886Z,6.59
2024-02-28T05:08:26.075Z,6.62
2024-02-28T05:10:52.831Z,6.53
2024-02-28T05:13:20.066Z,6.57
2024-02-28T05:15:46.641Z,6.55
2024-02-28T05:18:13.198Z,6.47
2024-02-28T05:20:39.771Z,6.53
2024-02-28T05:23:06.485Z,6.46
2024-02-28T05:25:33.009Z,6.52
2024-02-28T05:27:59.709Z,6.46
2024-02-28T05:30:26.368Z,6.41
2024-02-28T05:32:52.951Z,6.38
2024-02-28T05:35:19.541Z,6.43
2024-02-28T05:37:47.886Z,6.59
2024-02-28T05:40:14.388Z,6.40
2024-02-28T05:42:41.267Z,6.38
2024-02-28T05:45:08.194Z,6.42
2024-02-28T05:47:34.937Z,6.45
2024-02-28T05:50:02.045Z,6.45
2024-02-28T05:52:28.666Z,6.47
2024-02-28T05:54:55.283Z,6.66
2024-02-28T05:57:21.892Z,6.58
2024-02-28T05:59:48.551Z,6.40
2024-02-28T06:02:15.207Z,6.36
2024-02-28T06:04:41.849Z,6.36
2024-02-28T06:07:08.388Z,6.56
2024-02-28T06:09:35.003Z,6.40
2024-02-28T06:12:03.056Z,6.48
2024-02-28T06:14:29.625Z,6.33
2024-02-28T06:16:56.165Z,6.43
2024-02-28T06:19:22.688Z,6.33
2024-02-28T06:21:49.340Z,6.37
2024-02-28T06:24:15.972Z,6.38
2024-02-28T06:26:45.390Z,6.31
2024-02-28T06:29:13.532Z,6.27
2024-02-28T06:31:40.286Z,6.21
2024-02-28T06:34:07.048Z,6.19
2024-02-28T06:36:33.905Z,6.15
2024-02-28T06:39:00.540Z,6.16
2024-02-28T06:41:27.063Z,6.19
2024-02-28T06:43:53.720Z,6.16
2024-02-28T06:46:20.326Z,6.08
2024-02-28T06:48:46.830Z,6.22
2024-02-28T06:51:15.962Z,6.31
2024-02-28T06:53:43.900Z,6.17
2024-02-28T06:56:10.806Z,6.07
2024-02-28T06:58:37.416Z,6.19
2024-02-28T07:01:05.101Z,6.03
2024-02-28T07:03:31.740Z,6.02
2024-02-28T07:05:58.409Z,6.01
2024-02-28T07:08:24.943Z,6.05
2024-02-28T07:10:54.867Z,6.26
2024-02-28T07:13:21.812Z,6.17
2024-02-28T07:15:50.155Z,6.12
2024-02-28T07:18:17.192Z,6.12
2024-02-28T07:20:43.911Z,6.17
2024-02-28T07:23:10.558Z,6.12
2024-02-28T07:25:37.154Z,6.14
2024-02-28T07:28:04.029Z,6.15
2024-02-28T07:30:30.695Z,6.21
2024-02-28T07:32:57.758Z,6.11
2024-02-28T07:35:25.369Z,6.01
2024-02-28T07:37:51.951Z,6.08
2024-02-28T07:40:21.164Z,6.18
2024-02-28T07:42:47.788Z,6.32
2024-02-28T07:45:14.849Z,6.18
2024-02-28T07:47:41.624Z,6.18
2024-02-28T07:50:08.594Z,6.20
2024-02-28T07:52:36.262Z,6.08
2024-02-28T07:55:03.453Z,6.05
2024-02-28T07:57:30.184Z,6.07
2024-02-28T07:59:57.321Z,6.12
2024-02-28T08:02:24.074Z,6.05
2024-02-28T08:04:51.850Z,6.09
2024-02-28T08:07:18.522Z,6.06
2024-02-28T08:09:45.778Z,6.01
2024-02-28T08:12:12.982Z,6.03
2024-02-28T08:14:39.585Z,5.95
2024-02-28T08:17:06.122Z,5.97
2024-02-28T08:19:32.743Z,5.97
2024-02-28T08:21:59.370Z,6.11
2024-02-28T08:24:25.978Z,6.21
2024-02-28T08:26:52.633Z,6.16
2024-02-28T08:29:19.190Z,6.16
2024-02-28T08:31:46.659Z,6.19
2024-02-28T08:34:13.605Z,6.08
2024-02-28T08:36:40.336Z,6.06
2024-02-28T08:39:06.896Z,6.00
2024-02-28T08:41:36.279Z,6.04
2024-02-28T08:44:02.865Z,6.04
2024-02-28T08:46:29.929Z,6.09
2024-02-28T08:48:56.548Z,6.18
2024-02-28T08:51:23.188Z,6.19
2024-02-28T08:53:49.828Z,5.99
2024-02-28T08:56:17.096Z,6.12
2024-02-28T08:58:45.565Z,6.18
2024-02-28T09:01:18.698Z,6.29
2024-02-28T09:03:45.447Z,6.49
2024-02-28T09:06:12.191Z,6.36
2024-02-28T09:08:38.836Z,6.33
2024-02-28T09:11:06.439Z,6.26
2024-02-28T09:13:33.292Z,6.01
2024-02-28T09:16:00.041Z,6.26
2024-02-28T09:18:26.706Z,6.12
2024-02-28T09:20:53.421Z,6.45
2024-02-28T09:23:20.230Z,6.39
2024-02-28T09:25:46.802Z,6.30
2024-02-28T09:28:14.783Z,6.47
2024-02-28T09:30:46.390Z,6.51
2024-02-28T09:33:20.841Z,6.41
2024-02-28T09:35:47.736Z,6.53
2024-02-28T09:38:14.300Z,6.69
2024-02-28T09:40:41.205Z,6.71
2024-02-28T09:43:20.900Z,6.77
2024-02-28T09:45:49.026Z,6.88
2024-02-28T09:48:18.077Z,6.80
2024-02-28T09:50:46.651Z,6.95
2024-02-28T09:53:13.225Z,7.17
2024-02-28T09:55:39.796Z,7.00
2024-02-28T09:58:06.914Z,7.04
2024-02-28T10:00:35.038Z,7.30
2024-02-28T10:03:02.425Z,7.37
2024-02-28T10:05:30.126Z,7.39
2024-02-28T10:07:56.887Z,7.27
2024-02-28T10:10:24.312Z,7.37
2024-02-28T10:12:51.818Z,7.62
2024-02-28T10:15:18.430Z,7.83
2024-02-28T10:17:45.296Z,7.70
2024-02-28T10:20:12.480Z,7.74
2024-02-28T10:22:40.378Z,7.92
2024-02-28T10:25:07.474Z,7.96
2024-02-28T10:27:35.790Z,8.11
2024-02-28T10:30:05.815Z,8.07
2024-02-28T10:32:35.056Z,8.07
2024-02-28T10:35:02.134Z,8.13
2024-02-28T10:37:34.121Z,8.07
2024-02-28T10:40:02.064Z,7.91
2024-02-28T10:42:31.352Z,8.11
2024-02-28T10:45:10.492Z,8.10
2024-02-28T10:47:47.818Z,8.31
2024-02-28T10:50:16.686Z,8.33
2024-02-28T10:52:48.159Z,8.14
2024-02-28T10:55:15.168Z,8.21
2024-02-28T10:57:42.760Z,8.36
2024-02-28T11:00:10.852Z,8.29
2024-02-28T11:02:40.219Z,8.29
2024-02-28T11:05:07.869Z,8.45
2024-02-28T11:07:35.239Z,8.52
2024-02-28T11:10:07.223Z,8.73
2024-02-28T11:12:33.811Z,8.84
2024-02-28T11:15:01.941Z,8.97
2024-02-28T11:17:32.601Z,8.94
2024-02-28T11:19:59.969Z,9.13
2024-02-28T11:22:30.315Z,9.23
2024-02-28T11:24:57.496Z,9.16
2024-02-28T11:27:25.108Z,9.15
2024-02-28T11:29:52.098Z,9.06
2024-02-28T11:32:18.712Z,9.12
2024-02-28T11:34:46.506Z,9.24
2024-02-28T11:37:13.240Z,9.39
2024-02-28T11:39:39.984Z,9.38
2024-02-28T11:42:11.382Z,9.36
2024-02-28T11:44:38.068Z,9.52
2024-02-28T11:47:04.770Z,9.56
2024-02-28T11:49:34.503Z,9.72
2024-02-28T11:52:01.088Z,9.77
2024-02-28T11:54:28.014Z,9.46
2024-02-28T11:56:57.428Z,9.72
2024-02-28T11:59:24.177Z,9.83
2024-02-28T12:01:52.813Z,9.76
2024-02-28T12:04:19.371Z,9.76
2024-02-28T12:06:46.041Z,9.93
2024-02-28T12:09:21.465Z,10.04
2024-02-28T12:11:54.648Z,10.05
2024-02-28T12:14:21.187Z,9.72
2024-02-28T12:16:49.839Z,9.88
2024-02-28T12:19:17.711Z,9.89
2024-02-28T12:21:44.459Z,9.96
2024-02-28T12:24:12.485Z,10.10
2024-02-28T12:26:39.784Z,9.98
2024-02-28T12:29:06.426Z,10.07
2024-02-28T12:31:33.201Z,9.78
2024-02-28T12:34:00.298Z,10.02
2024-02-28T12:36:27.929Z,10.05
2024-02-28T12:38:54.699Z,10.06
2024-02-28T12:41:21.297Z,10.13
2024-02-28T12:43:47.855Z,10.15
2024-02-28T12:46:14.571Z,10.30
2024-02-28T12:48:45.398Z,10.45
2024-02-28T12:51:34.610Z,10.48
2024-02-28T12:54:01.283Z,10.67
2024-02-28T12:56:27.758Z,10.60
2024-02-28T12:58:54.288Z,10.39
2024-02-28T13:01:21.138Z,10.68
2024-02-28T13:03:49.789Z,10.86
2024-02-28T13:06:16.474Z,10.70
2024-02-28T13:08:43.439Z,10.86
2024-02-28T13:11:10.063Z,10.67
2024-02-28T13:13:37.409Z,10.79
2024-02-28T13:16:04.420Z,10.81
2024-02-28T13:18:31.175Z,10.61
2024-02-28T13:20:57.812Z,10.81
2024-02-28T13:23:24.423Z,10.86
2024-02-28T13:25:50.982Z,10.76
2024-02-28T13:28:17.562Z,10.59
2024-02-28T13:30:44.435Z,10.60
2024-02-28T13:33:10.993Z,10.74
2024-02-28T13:35:39.697Z,10.70
2024-02-28T13:38:06.367Z,10.83
2024-02-28T13:40:33.050Z,10.71
2024-02-28T13:43:00.139Z,10.88
2024-02-28T13:45:26.797Z,10.96
2024-02-28T13:47:53.506Z,11.00
2024-02-28T13:50:20.102Z,10.90
2024-02-28T13:52:49.920Z,10.94
2024-02-28T13:55:16.700Z,10.64
2024-02-28T13:57:43.335Z,10.70
2024-02-28T14:00:12.369Z,10.67
2024-02-28T14:02:39.237Z,10.97
2024-02-28T14:05:07.654Z,11.08
2024-02-28T14:07:34.976Z,10.83
2024-02-28T14:10:01.516Z,10.84
2024-02-28T14:12:28.207Z,10.87
2024-02-28T14:14:54.807Z,10.90
2024-02-28T14:17:21.325Z,10.90
2024-02-28T14:19:49.474Z,10.80
2024-02-28T14:22:16.200Z,11.11
2024-02-28T14:24:42.775Z,10.97
2024-02-28T14:27:10.218Z,11.08
2024-02-28T14:29:37.357Z,11.06
2024-02-28T14:32:04.232Z,11.08
2024-02-28T14:34:32.803Z,10.85
2024-02-28T14:36:59.626Z,10.92
2024-02-28T14:39:26.265Z,10.87
2024-02-28T14:41:52.892Z,11.00
2024-02-28T14:44:19.633Z,11.02
2024-02-28T14:46:46.224Z,11.23
2024-02-28T14:49:12.802Z,11.25
2024-02-28T14:51:40.563Z,11.21
2024-02-28T14:54:08.069Z,11.25
2024-02-28T14:56:34.653Z,11.06
2024-02-28T14:59:01.177Z,11.07
2024-02-28T15:01:28.213Z,11.16
2024-02-28T15:03:55.143Z,11.11
2024-02-28T15:06:22.051Z,11.05
2024-02-28T15:08:50.148Z,10.96
2024-02-28T15:11:17.394Z,11.02
2024-02-28T15:13:43.983Z,11.23
2024-02-28T15:16:10.824Z,11.12
2024-02-28T15:18:37.931Z,11.18
2024-02-28T15:21:05.157Z,10.95
2024-02-28T15:23:32.438Z,11.15
2024-02-28T15:26:00.246Z,11.21
2024-02-28T15:28:28.341Z,11.15
2024-02-28T15:30:56.299Z,11.19
2024-02-28T15:33:23.769Z,11.06
2024-02-28T15:35:50.471Z,11.10
2024-02-28T15:38:17.122Z,11.16
2024-02-28T15:40:43.727Z,11.38
2024-02-28T15:43:10.789Z,11.36
2024-02-28T15:45:40.444Z,11.13
2024-02-28T15:48:07.659Z,11.16
2024-02-28T15:50:34.272Z,11.09
2024-02-28T15:53:00.891Z,11.13
2024-02-28T15:55:27.458Z,11.25
2024-02-28T15:57:56.474Z,11.26
2024-02-28T16:00:23.817Z,11.17
2024-02-28T16:02:50.440Z,11.15
2024-02-28T16:05:17.478Z,11.11
2024-02-28T16:07:45.151Z,11.18
2024-02-28T16:10:12.273Z,11.14
2024-02-28T16:12:38.972Z,11.10
2024-02-28T16:15:09.076Z,11.07
2024-02-28T16:17:35.807Z,11.12
2024-02-28T16:20:03.760Z,11.16
2024-02-28T16:22:30.802Z,10.97
2024-02-28T16:24:57.490Z,11.00
2024-02-28T16:27:24.203Z,11.07
2024-02-28T16:29:51.890Z,11.02
2024-02-28T16:32:18.573Z,10.98
2024-02-28T16:34:45.157Z,10.99
2024-02-28T16:37:11.899Z,11.00
2024-02-28T16:39:38.503Z,11.10
2024-02-28T16:42:05.254Z,11.10
2024-02-28T16:44:31.943Z,11.04
2024-02-28T16:46:58.503Z,10.98
2024-02-28T16:49:25.124Z,10.98
2024-02-28T16:51:51.779Z,10.96
2024-02-28T16:54:20.579Z,10.91
2024-02-28T16:56:47.820Z,10.87
2024-02-28T16:59:15.643Z,10.88
2024-02-28T17:01:42.697Z,10.89
2024-02-28T17:04:09.483Z,10.99
2024-02-28T17:06:36.057Z,10.94
2024-02-28T17:09:02.616Z,10.94
2024-02-28T17:11:29.396Z,10.96
2024-02-28T17:13:56.068Z,11.17
2024-02-28T17:16:22.687Z,11.22
2024-02-28T17:18:49.283Z,11.11
2024-02-28T17:21:16.645Z,10.95
2024-02-28T17:23:43.502Z,10.77
2024-02-28T17:26:11.016Z,10.70
2024-02-28T17:28:37.667Z,10.64
2024-02-28T17:31:04.630Z,10.66
2024-02-28T17:33:31.315Z,10.52
2024-02-28T17:35:57.979Z,10.46
2024-02-28T17:38:24.561Z,10.44
2024-02-28T17:40:51.451Z,10.38
2024-02-28T17:43:20.403Z,10.33
2024-02-28T17:45:47.291Z,10.31
2024-02-28T17:48:14.002Z,10.26
2024-02-28T17:50:40.973Z,10.21
2024-02-28T17:53:07.522Z,10.15
2024-02-28T17:55:34.166Z,10.16
2024-02-28T17:58:01.045Z,10.12
2024-02-28T18:00:28.081Z,10.02
2024-02-28T18:02:55.091Z,10.02
2024-02-28T18:05:24.526Z,9.94
2024-02-28T18:07:54.250Z,9.96
2024-02-28T18:10:21.350Z,9.86
2024-02-28T18:12:48.455Z,9.80
2024-02-28T18:15:15.081Z,9.79
2024-02-28T18:17:41.734Z,9.77
2024-02-28T18:20:09.041Z,9.77
2024-02-28T18:22:36.457Z,9.71
2024-02-28T18:25:04.348Z,9.70
2024-02-28T18:27:31.137Z,9.70
2024-02-28T18:29:57.917Z,9.61
2024-02-28T18:32:24.802Z,9.58
2024-02-28T18:34:53.443Z,9.51
2024-02-28T18:37:20.278Z,9.48
2024-02-28T18:39:46.941Z,9.45
2024-02-28T18:42:13.531Z,9.44
2024-02-28T18:44:40.247Z,9.41
2024-02-28T18:47:06.936Z,9.37
2024-02-28T18:49:33.935Z,9.41
2024-02-28T18:52:01.293Z,9.36
2024-02-28T18:54:28.182Z,9.43
2024-02-28T18:56:55.616Z,9.41
2024-02-28T18:59:22.251Z,9.32
2024-02-28T19:01:50.895Z,9.33
2024-02-28T19:04:17.920Z,9.31
2024-02-28T19:06:46.077Z,9.33
2024-02-28T19:09:12.755Z,9.31
2024-02-28T19:11:39.504Z,9.30
2024-02-28T19:14:06.424Z,9.25
2024-02-28T19:16:33.054Z,9.24
2024-02-28T19:18:59.737Z,9.21
2024-02-28T19:21:26.365Z,9.20
2024-02-28T19:23:53.288Z,9.19
2024-02-28T19:26:20.002Z,9.15
2024-02-28T19:28:46.743Z,9.13
2024-02-28T19:31:14.724Z,9.14
2024-02-28T19:33:41.425Z,9.14
2024-02-28T19:36:08.598Z,9.13
2024-02-28T19:38:35.219Z,9.10
2024-02-28T19:41:01.788Z,9.07
2024-02-28T19:43:28.426Z,9.05
2024-02-28T19:45:54.973Z,9.03
2024-02-28T19:48:22.346Z,8.99
2024-02-28T19:50:49.189Z,8.99
2024-02-28T19:53:15.778Z,8.97
2024-02-28T19:55:42.348Z,8.93
2024-02-28T19:58:09.303Z,8.96
2024-02-28T20:00:36.704Z,8.88
2024-02-28T20:03:04.435Z,8.82
2024-02-28T20:05:31.101Z,8.81
2024-02-28T20:07:57.620Z,8.78
2024-02-28T20:10:25.234Z,8.77
2024-02-28T20:12:51.881Z,8.73
2024-02-28T20:15:19.836Z,8.67
2024-02-28T20:17:46.524Z,8.61
2024-02-28T20:20:13.206Z,8.62
2024-02-28T20:22:40.838Z,8.65
2024-02-28T20:25:08.034Z,8.59
2024-02-28T20:27:34.670Z,8.60
2024-02-28T20:30:01.248Z,8.60
2024-02-28T20:32:28.297Z,8.55
2024-02-28T20:34:54.993Z,8.49
2024-02-28T20:37:22.953Z,8.47
2024-02-28T20:39:50.220Z,8.46
2024-02-28T20:42:17.031Z,8.45
2024-02-28T20:44:43.709Z,8.44
2024-02-28T20:47:10.807Z,8.44
2024-02-28T20:49:37.764Z,8.46
2024-02-28T20:52:05.226Z,8.47
2024-02-28T20:54:32.261Z,8.43
2024-02-28T20:57:06.005Z,8.40
2024-02-28T20:59:39.160Z,8.42
2024-02-28T21:02:06.099Z,8.42
2024-02-28T21:04:34.765Z,8.35
2024-02-28T21:07:01.338Z,8.35
2024-02-28T21:09:27.936Z,8.32
2024-02-28T21:12:05.091Z,8.34
2024-02-28T21:14:35.693Z,8.29
2024-02-28T21:17:02.515Z,8.35
2024-02-28T21:19:30.437Z,8.27
2024-02-28T21:21:57.299Z,8.19
2024-02-28T21:24:24.137Z,8.15
2024-02-28T21:26:50.812Z,8.13
2024-02-28T21:29:18.657Z,8.12
2024-02-28T21:31:45.224Z,8.09
2024-02-28T21:34:11.746Z,8.20
2024-02-28T21:36:38.369Z,8.06
2024-02-28T21:39:09.835Z,8.05
2024-02-28T21:41:36.566Z,8.02
2024-02-28T21:44:03.321Z,8.03
2024-02-28T21:46:29.914Z,7.98
2024-02-28T21:49:02.997Z,7.96
2024-02-28T21:51:36.375Z,7.97
2024-02-28T21:54:02.973Z,7.90
2024-02-28T21:56:29.512Z,7.86
2024-02-28T21:58:56.920Z,7.83
2024-02-28T22:01:23.681Z,7.77
2024-02-28T22:03:51.583Z,7.72
2024-02-28T22:06:18.167Z,7.71
2024-02-28T22:08:44.822Z,7.66
2024-02-28T22:11:11.469Z,7.70
2024-02-28T22:13:38.148Z,7.68
2024-02-28T22:16:05.137Z,7.61
2024-02-28T22:18:31.826Z,7.61
2024-02-28T22:20:58.476Z,7.61
2024-02-28T22:23:25.710Z,7.59
2024-02-28T22:25:52.275Z,7.48
2024-02-28T22:28:19.465Z,7.48
2024-02-28T22:30:46.557Z,7.41
2024-02-28T22:33:13.628Z,7.39
2024-02-28T22:35:41.211Z,7.46
2024-02-28T22:38:08.286Z,7.46
2024-02-28T22:40:35.377Z,7.44
2024-02-28T22:43:02.444Z,7.35
2024-02-28T22:45:29.137Z,7.26
2024-02-28T22:47:56.002Z,7.29
2024-02-28T22:50:22.810Z,7.26
2024-02-28T22:52:49.557Z,7.27
2024-02-28T22:55:20.952Z,7.22
2024-02-28T22:57:48.231Z,7.17
2024-02-28T23:00:31.477Z,7.11
2024-02-28T23:03:00.311Z,7.15
2024-02-28T23:05:27.919Z,7.15
2024-02-28T23:07:56.023Z,7.19
2024-02-28T23:10:23.565Z,7.19
2024-02-28T23:12:55.451Z,7.24
2024-02-28T23:15:23.892Z,7.23
2024-02-28T23:17:55.811Z,7.19
2024-02-28T23:20:27.439Z,7.33
2024-02-28T23:22:55.810Z,7.33
2024-02-28T23:25:23.295Z,7.29
2024-02-28T23:27:51.343Z,7.35
2024-02-28T23:30:18.585Z,7.34
2024-02-28T23:32:45.253Z,7.29
2024-02-28T23:35:11.975Z,7.28
2024-02-28T23:37:39.744Z,7.29
2024-02-28T23:40:09.102Z,7.30
2024-02-28T23:42:36.317Z,7.26
2024-02-28T23:45:03.251Z,7.24
2024-02-28T23:47:30.081Z,7.28
2024-02-28T23:49:56.752Z,7.28
2024-02-28T23:52:23.523Z,7.31
2024-02-28T23:54:50.319Z,7.32
2024-02-28T23:57:16.905Z,7.34
2024-02-28T23:59:43.833Z,7.32
